Willow, Michigan
Current Conditions -  °F | °C
As of 7:53 AM on Friday 31 Oct 2014 (Local Time) from KDTW Reporting Station
Light Rain Light Rain  
Wind Chill: 38°   Ceiling: 3500
Heat Index: 43°   Visibility: 10mi
Dew Point: 38°   Wind: 8mph
Humidity: 82%   Direction: 190°S
Pressure: 29.9"   Gusts: NA
Location:  42.1166°N, 83.4023°W
Report Text: KDTW 311153Z 19007KT 10SM -RA BKN035 OVC050 06/03 A2990 RMK AO2 SLP128 P0000 60000 T00610033 10078 20061 57012
Loading
Personal Weather Stations






























Interactive Weather Map
Tropical Storm Tracking
New forecast layout! Learn more

10-Day Weather Forecast

Advertisements
Track Severe Weather on mobile